This is the latest recevied weather packets stored in our database for station/object VE7OTD. If no packets are shown the sender has not sent any weather packets the latest 10 day(s).
| Time | Temp. | Humidity | Pressure | Rain* | Wind** | Luminosity | Snow |
|---|---|---|---|---|---|---|---|
| 1788649311 | 22.78° C | 53% | 1016.5 hPa | 0 mm | - | - | - |
| 1788647502 | 21.67° C | 53% | 1016.8 hPa | 0 mm | - | - | - |
| 1788645686 | 22.22° C | 52% | 1017.1 hPa | 0 mm | - | - | - |
| 1788643885 | 22.78° C | 51% | 1017.1 hPa | 0 mm | - | - | - |
| 1788642070 | 21.67° C | 55% | 1017.3 hPa | 0 mm | - | - | - |
| 1788640269 | 21.67° C | 55% | 1017.4 hPa | 0 mm | - | - | - |
| 1788638455 | 22.22° C | 61% | 1017.4 hPa | 0.25 mm | - | - | - |
| 1788636655 | 21.67° C | 63% | 1017.6 hPa | 0.25 mm | - | - | - |
| 1788634849 | 21.11° C | 66% | 1017.7 hPa | 0 mm | - | - | - |
| 1788633048 | 20° C | 78% | 1017.9 hPa | 0 mm | - | - | - |
| 1788631249 | 18.33° C | 82% | 1018.1 hPa | 0 mm | - | - | - |
| 1788629447 | 18.89° C | 77% | 1018.1 hPa | 0 mm | - | - | - |
| 1788627632 | 18.33° C | 81% | 1018 hPa | 0 mm | - | - | - |
| 1788625817 | 17.78° C | 81% | 1017.9 hPa | 0 mm | - | - | - |
| 1788624002 | 18.33° C | 82% | 1018 hPa | 0 mm | - | - | - |
| 1788622187 | 15° C | 99% | 1017.8 hPa | 0 mm | - | - | - |
| 1788620371 | 13.89° C | 99% | 1017.7 hPa | 0 mm | - | - | - |
| 1788618572 | 13.33° C | 99% | 1017.6 hPa | 0 mm | - | - | - |
| 1788616742 | 13.33° C | 99% | 1017.5 hPa | 0 mm | - | - | - |
| 1788614942 | 13.33° C | 99% | 1017.4 hPa | 0 mm | - | - | - |
| 1788613112 | 13.33° C | 99% | 1017.4 hPa | 0 mm | - | - | - |
| 1788611296 | 13.33° C | 99% | 1017.4 hPa | 0 mm | - | - | - |
| 1788609482 | 13.33° C | 99% | 1017.3 hPa | 0.25 mm | - | - | - |
| 1788607670 | 13.33° C | 99% | 1017.2 hPa | 0.51 mm | - | - | - |
| 1788605852 | 13.33° C | 99% | 1016.9 hPa | 0.25 mm | - | - | - |
* Rain latest hour (hover to see other rain measurements)
** Current wind speed in m/s (hover to see current wind gust speed)